Terminal Aerodrome Forecast
Issued by NWS Grand Junction, CO

Home | Current Version | Previous Version | Text Only | Print | Product List | Glossary On
Versions: 1 2 3 4 5 6 7 8 9 10 11 12 13 14 15 16 17 18 19 20 21 22 23 24 25 26 27 28 29 30 31 32 33 34 35 36 37
000
FTUS45 KGJT 300520
TAFGJT
TAF
KGJT 300520Z 3006/0106 11005KT P6SM FEW090 SCT140
     FM300800 14004KT 5SM BR FEW090 SCT140
      TEMPO 3010/3014 2SM BR SCT008
     FM301500 16006KT P6SM SCT100
     FM301800 25007KT P6SM SCT100 BKN150
     FM010200 05005KT P6SM SCT100 SCT150=

USA.gov is the U.S. government's official web portal to all federal, state and local government web resources and services.